Time;durP1;ratioP1;P1;durP2;ratioP2;P2;SDS_P1;SDS_P2;PMS_P1;PMS_P2;Temp;Humidity;BMP_temperature;BMP_pressure;BME280_temperature;BME280_humidity;BME280_pressure;Samples;Min_cycle;Max_cycle;Signal;HPM_P1;HPM_P2
2024/01/14 00:00:38;;;;;;;;;;;;;;;19.04;32.61;95544.97;10498960;28;2869;-67
2024/01/14 00:05:39;;;;;;;;;;;;;;;18.97;32.51;95541.88;10501554;28;3020;-66
2024/01/14 00:10:39;;;;;;;;;;;;;;;19.00;31.80;95536.06;10506931;28;3039;-66
2024/01/14 00:15:39;;;;;;;;;;;;;;;19.00;31.54;95536.06;10503391;28;2871;-67
2024/01/14 00:20:39;;;;;;;;;;;;;;;19.01;31.33;95515.84;10508424;28;2979;-67
2024/01/14 00:25:40;;;;;;;;;;;;;;;18.91;32.04;95519.28;10504910;28;2931;-66
2024/01/14 00:30:40;;;;;;;;;;;;;;;18.96;31.63;95487.75;10487317;28;2886;-69
2024/01/14 00:35:40;;;;;;;;;;;;;;;18.95;31.51;95475.69;10503979;28;3116;-67
2024/01/14 00:40:41;;;;;;;;;;;;;;;18.93;31.87;95461.22;10495107;28;2975;-67
2024/01/14 00:45:41;;;;;;;;;;;;;;;18.95;31.17;95453.88;10498274;28;2946;-67
2024/01/14 00:50:41;;;;;;;;;;;;;;;18.89;31.56;95450.50;10499977;28;3040;-67
2024/01/14 00:55:42;;;;;;;;;;;;;;;18.87;31.49;95449.97;10498256;28;2968;-68
2024/01/14 01:00:42;;;;;;;;;;;;;;;18.85;31.44;95433.72;10506764;28;3024;-67
2024/01/14 01:05:42;;;;;;;;;;;;;;;18.87;30.93;95425.56;10490611;28;3122;-67
2024/01/14 01:10:42;;;;;;;;;;;;;;;18.92;30.60;95428.94;10501604;28;2955;-67
2024/01/14 01:15:43;;;;;;;;;;;;;;;18.83;30.71;95421.91;10505067;28;2948;-67
2024/01/14 01:20:43;;;;;;;;;;;;;;;18.86;30.67;95418.72;10505819;28;2992;-67
2024/01/14 01:25:43;;;;;;;;;;;;;;;18.86;30.46;95424.75;10503945;28;2948;-67
2024/01/14 01:30:44;;;;;;;;;;;;;;;18.83;30.18;95425.31;10496840;28;2884;-69
2024/01/14 01:35:44;;;;;;;;;;;;;;;18.83;30.64;95417.44;10495093;28;2976;-67
2024/01/14 01:40:46;;;;;;;;;;;;;;;18.83;30.49;95416.63;10504398;28;3094;-66
2024/01/14 01:45:46;;;;;;;;;;;;;;;18.85;30.02;95404.03;10498814;28;3061;-67
2024/01/14 01:50:46;;;;;;;;;;;;;;;18.78;30.36;95404.31;10501187;28;2972;-67
2024/01/14 01:55:46;;;;;;;;;;;;;;;18.79;30.05;95398.03;10502482;28;3052;-67
2024/01/14 02:00:48;;;;;;;;;;;;;;;18.77;30.16;95392.25;10495991;28;3040;-67
2024/01/14 02:05:48;;;;;;;;;;;;;;;18.74;30.02;95371.78;10501720;28;2940;-67
2024/01/14 02:10:49;;;;;;;;;;;;;;;18.75;29.94;95368.13;10488383;28;3019;-67
2024/01/14 02:15:49;;;;;;;;;;;;;;;18.76;29.87;95359.16;10496223;28;3096;-67
2024/01/14 02:20:49;;;;;;;;;;;;;;;18.81;29.69;95351.28;10498511;28;3061;-67
2024/01/14 02:25:49;;;;;;;;;;;;;;;18.75;29.83;95349.72;10501246;28;2976;-67
2024/01/14 02:30:50;;;;;;;;;;;;;;;18.75;29.66;95349.72;10486130;28;2997;-67
2024/01/14 02:35:50;;;;;;;;;;;;;;;18.78;29.64;95343.91;10494697;28;2877;-67
2024/01/14 02:40:50;;;;;;;;;;;;;;;18.77;29.58;95331.06;10490964;28;2976;-67
2024/01/14 02:45:50;;;;;;;;;;;;;;;18.78;29.46;95327.38;10494539;28;3019;-67
2024/01/14 02:50:51;;;;;;;;;;;;;;;18.78;29.28;95324.75;10498654;28;2960;-67
2024/01/14 02:55:51;;;;;;;;;;;;;;;18.78;29.35;95335.25;10495471;28;2988;-67
2024/01/14 03:00:51;;;;;;;;;;;;;;;18.78;29.10;95327.38;10498237;28;3011;-66
2024/01/14 03:05:52;;;;;;;;;;;;;;;18.76;29.13;95309.28;10498847;28;2964;-68
2024/01/14 03:10:52;;;;;;;;;;;;;;;18.78;28.96;95309.00;10496092;28;2823;-65
2024/01/14 03:15:53;;;;;;;;;;;;;;;18.78;28.89;95288.00;10503301;28;3352;-67
2024/01/14 03:20:53;;;;;;;;;;;;;;;18.79;28.74;95281.69;10500675;28;2964;-69
2024/01/14 03:25:54;;;;;;;;;;;;;;;18.76;28.90;95284.84;10504920;28;3004;-67
2024/01/14 03:30:54;;;;;;;;;;;;;;;18.76;28.68;95275.16;10505461;28;2965;-67
2024/01/14 03:35:54;;;;;;;;;;;;;;;18.79;28.51;95282.50;10503868;28;2964;-67
2024/01/14 03:40:54;;;;;;;;;;;;;;;18.76;28.63;95272.50;10501689;28;3024;-67
2024/01/14 03:45:55;;;;;;;;;;;;;;;18.79;28.49;95271.97;10504371;28;3085;-67
2024/01/14 03:50:55;;;;;;;;;;;;;;;18.78;28.52;95280.91;10507344;28;2917;-67
2024/01/14 03:55:55;;;;;;;;;;;;;;;18.77;28.48;95276.72;10504449;28;2853;-66
2024/01/14 04:00:55;;;;;;;;;;;;;;;18.79;28.46;95266.72;10499704;28;2929;-67
2024/01/14 04:05:56;;;;;;;;;;;;;;;18.79;28.39;95264.09;10505277;28;3231;-67
2024/01/14 04:10:56;;;;;;;;;;;;;;;18.80;28.03;95251.75;10505345;28;2921;-67
2024/01/14 04:15:58;;;;;;;;;;;;;;;18.79;28.28;95250.19;10504014;28;2960;-66
2024/01/14 04:20:59;;;;;;;;;;;;;;;18.79;28.20;95261.47;10505063;28;2931;-67
2024/01/14 04:26:03;;;;;;;;;;;;;;;18.80;28.13;95262.25;10484445;28;2900;-68
2024/01/14 04:31:03;;;;;;;;;;;;;;;18.79;27.97;95261.47;10500857;28;2949;-68
2024/01/14 04:36:04;;;;;;;;;;;;;;;18.79;27.96;95256.22;10480719;28;7258;-67
2024/01/14 04:41:04;;;;;;;;;;;;;;;18.80;27.90;95244.66;10494048;28;3140;-67
2024/01/14 04:46:09;;;;;;;;;;;;;;;18.80;27.73;95249.91;10478251;28;3089;-68
2024/01/14 04:51:09;;;;;;;;;;;;;;;18.78;27.73;95259.91;10500231;28;3101;-67
2024/01/14 04:56:09;;;;;;;;;;;;;;;18.80;27.67;95268.28;10500591;28;3059;-67
2024/01/14 05:01:12;;;;;;;;;;;;;;;18.81;27.58;95269.06;10494675;28;3117;-68
2024/01/14 05:06:12;;;;;;;;;;;;;;;18.81;27.51;95269.88;10492353;28;3094;-68
2024/01/14 05:11:12;;;;;;;;;;;;;;;18.81;27.57;95269.88;10481270;28;3047;-67
2024/01/14 05:16:13;;;;;;;;;;;;;;;18.81;27.51;95264.63;10494212;28;3023;-68
2024/01/14 05:21:14;;;;;;;;;;;;;;;18.83;27.51;95273.00;10496461;28;3122;-67
2024/01/14 05:26:14;;;;;;;;;;;;;;;18.83;27.51;95269.59;10497383;28;3046;-67
2024/01/14 05:31:14;;;;;;;;;;;;;;;18.84;27.28;95274.56;10475341;28;3006;-67
2024/01/14 05:36:14;;;;;;;;;;;;;;;18.83;27.43;95272.22;10495718;28;3107;-67
2024/01/14 05:41:15;;;;;;;;;;;;;;;18.84;27.42;95274.56;10489382;28;2992;-67
2024/01/14 05:46:15;;;;;;;;;;;;;;;18.83;27.15;95283.50;10490042;28;3096;-67
2024/01/14 05:51:16;;;;;;;;;;;;;;;18.85;27.40;95281.41;10498215;28;3131;-67
2024/01/14 05:56:26;;;;;;;;;;;;;;;18.83;27.27;95275.63;10493333;28;3178;-67
2024/01/14 06:01:27;;;;;;;;;;;;;;;18.84;27.12;95279.81;10487471;28;3218;-67
2024/01/14 06:06:27;;;;;;;;;;;;;;;18.85;27.20;95280.59;10492368;28;3158;-68
2024/01/14 06:11:27;;;;;;;;;;;;;;;18.85;27.31;95286.66;10493981;28;3027;-68
2024/01/14 06:16:28;;;;;;;;;;;;;;;18.86;27.06;95280.31;10499780;28;2999;-67
2024/01/14 06:21:28;;;;;;;;;;;;;;;18.85;27.10;95289.28;10497092;28;3096;-67
2024/01/14 06:26:28;;;;;;;;;;;;;;;18.86;27.20;95290.81;10494419;28;2975;-69
2024/01/14 06:31:28;;;;;;;;;;;;;;;18.86;27.04;95301.34;10494015;28;2889;-67
2024/01/14 06:36:29;;;;;;;;;;;;;;;18.86;26.99;95290.03;10480118;28;2984;-67
2024/01/14 06:41:29;;;;;;;;;;;;;;;18.87;26.80;95291.63;10493751;28;2933;-67
2024/01/14 06:46:32;;;;;;;;;;;;;;;18.87;26.89;95294.25;10510306;28;3132;-67
2024/01/14 06:51:32;;;;;;;;;;;;;;;18.87;26.57;95299.50;10497964;28;2960;-67
2024/01/14 06:56:33;;;;;;;;;;;;;;;18.88;26.69;95291.34;10497052;28;2883;-67
2024/01/14 07:01:33;;;;;;;;;;;;;;;18.88;26.71;95288.72;10502769;28;3037;-67
2024/01/14 07:06:34;;;;;;;;;;;;;;;18.88;26.56;95285.28;10502782;28;3437;-66
2024/01/14 07:11:34;;;;;;;;;;;;;;;18.86;26.75;95285.56;10490230;28;2951;-67
2024/01/14 07:16:35;;;;;;;;;;;;;;;18.88;26.58;95291.34;10502603;28;2948;-69
2024/01/14 07:21:35;;;;;;;;;;;;;;;18.88;26.57;95287.91;10502385;28;2933;-67
2024/01/14 07:26:36;;;;;;;;;;;;;;;18.87;26.36;95279.28;10510912;28;3359;-68
2024/01/14 07:31:36;;;;;;;;;;;;;;;18.87;26.40;95279.28;10503740;28;2997;-67
2024/01/14 07:36:36;;;;;;;;;;;;;;;18.89;26.28;95271.13;10502059;28;2944;-66
2024/01/14 07:41:36;;;;;;;;;;;;;;;18.88;26.39;95259.03;10504655;28;2934;-66
2024/01/14 07:46:39;;;;;;;;;;;;;;;18.87;26.44;95258.28;10507428;28;2872;-66
2024/01/14 07:51:39;;;;;;;;;;;;;;;18.89;26.27;95269.28;10507822;28;2850;-66
2024/01/14 07:56:40;;;;;;;;;;;;;;;18.90;26.13;95262.97;10489512;28;2967;-68
2024/01/14 08:01:40;;;;;;;;;;;;;;;18.90;26.21;95256.94;10504514;28;2984;-66
2024/01/14 08:06:40;;;;;;;;;;;;;;;18.88;26.19;95254.56;10498584;28;2964;-64
2024/01/14 08:11:41;;;;;;;;;;;;;;;18.89;26.17;95250.09;10503691;28;2967;-65
2024/01/14 08:16:41;;;;;;;;;;;;;;;18.89;26.05;95253.53;10502166;28;2916;-65
2024/01/14 08:21:42;;;;;;;;;;;;;;;18.89;26.33;95245.66;10504003;28;2992;-66
2024/01/14 08:26:46;;;;;;;;;;;;;;;18.89;26.11;95256.16;10502919;28;3231;-67
2024/01/14 08:31:46;;;;;;;;;;;;;;;18.97;26.31;95252.94;10503033;28;2797;-65
2024/01/14 08:36:46;;;;;;;;;;;;;;;19.04;28.20;95250.75;10504947;28;2801;-63
2024/01/14 08:41:46;;;;;;;;;;;;;;;19.14;27.58;95250.69;10506964;28;3090;-63
2024/01/14 08:46:48;;;;;;;;;;;;;;;19.19;27.46;95244.59;10502811;28;3205;-62
2024/01/14 08:51:48;;;;;;;;;;;;;;;19.23;28.28;95225.38;10508762;28;2906;-60
2024/01/14 08:56:48;;;;;;;;;;;;;;;19.27;28.42;95218.50;10517360;28;3503;-61
2024/01/14 09:01:48;;;;;;;;;;;;;;;19.48;27.93;95219.91;10497785;28;2905;-59
2024/01/14 09:06:49;;;;;;;;;;;;;;;19.67;27.38;95213.91;10504299;28;3181;-59
2024/01/14 09:11:49;;;;;;;;;;;;;;;19.78;27.22;95215.38;10506782;28;2882;-61
2024/01/14 09:16:50;;;;;;;;;;;;;;;19.87;27.13;95209.22;10484376;28;2845;-61
2024/01/14 09:21:51;;;;;;;;;;;;;;;19.94;26.73;95208.88;10500389;28;2898;-62
2024/01/14 09:26:51;;;;;;;;;;;;;;;20.02;26.42;95200.34;10487929;28;2963;-62
2024/01/14 09:31:51;;;;;;;;;;;;;;;20.12;26.79;95202.84;10499427;28;2918;-62
2024/01/14 09:36:52;;;;;;;;;;;;;;;20.15;26.20;95205.69;10503952;28;2994;-62
2024/01/14 09:42:00;;;;;;;;;;;;;;;20.05;27.24;95207.69;10505235;28;2970;-61
2024/01/14 09:47:00;;;;;;;;;;;;;;;19.99;26.66;95204.31;10500986;28;2933;-63
2024/01/14 09:52:01;;;;;;;;;;;;;;;19.95;26.85;95213.06;10491690;28;2943;-63
2024/01/14 09:57:04;;;;;;;;;;;;;;;19.94;26.71;95211.50;10480920;28;2928;-63
2024/01/14 10:02:04;;;;;;;;;;;;;;;19.96;26.91;95209.38;10481205;28;2927;-62
2024/01/14 10:07:05;;;;;;;;;;;;;;;19.96;26.82;95196.22;10482033;28;2946;-60
2024/01/14 10:12:07;;;;;;;;;;;;;;;20.01;27.13;95183.78;10483914;28;3009;-60
2024/01/14 10:17:07;;;;;;;;;;;;;;;20.05;27.03;95163.72;10500495;28;2893;-60
2024/01/14 10:22:08;;;;;;;;;;;;;;;20.08;27.35;95149.22;10498419;28;2933;-59
2024/01/14 10:27:10;;;;;;;;;;;;;;;20.13;27.35;95141.28;10476677;28;3022;-60
2024/01/14 10:32:10;;;;;;;;;;;;;;;20.18;27.33;95125.41;10494413;28;3023;-61
2024/01/14 10:37:10;;;;;;;;;;;;;;;20.24;27.43;95124.28;10506185;28;2795;-61
2024/01/14 10:42:11;;;;;;;;;;;;;;;20.31;27.12;95113.41;10508334;28;3019;-61
2024/01/14 10:47:11;;;;;;;;;;;;;;;20.36;27.80;95097.53;10507669;28;2907;-62
2024/01/14 10:52:11;;;;;;;;;;;;;;;20.41;28.50;95102.72;10506360;28;3254;-65
2024/01/14 10:57:26;;;;;;;;;;;;;;;20.42;29.25;95089.28;10504699;28;2792;-65
2024/01/14 11:02:27;;;;;;;;;;;;;;;20.48;31.01;95077.59;10501924;28;2777;-64
2024/01/14 11:07:30;;;;;;;;;;;;;;;20.52;29.62;95062.00;10506581;28;2861;-67
2024/01/14 11:12:51;;;;;;;;;;;;;;;20.60;30.81;95063.97;10492563;28;3149;-66
2024/01/14 11:17:57;;;;;;;;;;;;;;;18.00;24.29;95053.66;10506891;28;2916;-67
2024/01/14 11:22:57;;;;;;;;;;;;;;;18.79;25.88;95045.38;10504357;28;2864;-69
2024/01/14 11:27:58;;;;;;;;;;;;;;;19.41;28.00;95035.47;10503329;28;3058;-67
2024/01/14 11:33:17;;;;;;;;;;;;;;;19.72;28.77;95027.19;10507113;28;2844;-67
2024/01/14 11:38:37;;;;;;;;;;;;;;;19.95;28.66;95015.78;10501611;28;2909;-66
2024/01/14 11:43:39;;;;;;;;;;;;;;;20.10;28.79;95003.16;10510130;28;2797;-65
2024/01/14 11:48:40;;;;;;;;;;;;;;;20.14;27.79;94991.00;10505376;28;2866;-66
2024/01/14 11:53:40;;;;;;;;;;;;;;;20.27;27.25;94986.88;10488381;28;3226;-65
2024/01/14 11:58:40;;;;;;;;;;;;;;;20.46;28.64;94974.44;10502311;28;2890;-64
2024/01/14 12:03:40;;;;;;;;;;;;;;;20.57;27.65;94965.25;10505618;28;2987;-65
2024/01/14 12:08:41;;;;;;;;;;;;;;;20.67;27.51;94959.81;10501700;28;3169;-64
2024/01/14 12:13:41;;;;;;;;;;;;;;;20.77;27.64;94943.78;10504306;28;2902;-66
2024/01/14 12:18:43;;;;;;;;;;;;;;;20.92;29.08;94932.19;10506744;28;2887;-65
2024/01/14 12:23:44;;;;;;;;;;;;;;;21.04;29.63;94922.72;10498404;28;2849;-67
2024/01/14 12:28:44;;;;;;;;;;;;;;;21.02;28.18;94903.81;10487277;28;2917;-63
2024/01/14 12:33:45;;;;;;;;;;;;;;;20.99;26.92;94893.84;10483463;28;2944;-66
2024/01/14 12:38:45;;;;;;;;;;;;;;;20.94;27.12;94885.25;10502030;28;2954;-66
2024/01/14 12:43:46;;;;;;;;;;;;;;;20.95;26.90;94876.28;10485855;28;2952;-66
2024/01/14 12:48:46;;;;;;;;;;;;;;;20.94;28.24;94864.94;10509600;28;2872;-64
2024/01/14 12:53:54;;;;;;;;;;;;;;;21.12;28.63;94846.69;10498709;28;2284;-66
2024/01/14 12:58:54;;;;;;;;;;;;;;;21.22;28.63;94844.59;10510748;28;2542;-65
2024/01/14 13:03:54;;;;;;;;;;;;;;;21.30;28.46;94840.47;10516921;28;1930;-64
2024/01/14 13:08:55;;;;;;;;;;;;;;;21.39;28.95;94836.03;10516872;28;2256;-66
2024/01/14 13:13:57;;;;;;;;;;;;;;;21.46;28.55;94828.47;10516597;28;1623;-65
2024/01/14 13:19:04;;;;;;;;;;;;;;;21.57;29.56;94813.97;10546464;27;1707;-63
2024/01/14 13:24:04;;;;;;;;;;;;;;;21.51;28.24;94799.38;10520331;28;1511;-67
2024/01/14 13:29:04;;;;;;;;;;;;;;;21.34;27.72;94800.03;10515547;28;1580;-68
2024/01/14 13:34:04;;;;;;;;;;;;;;;21.33;28.38;94802.97;10518526;28;1960;-69
2024/01/14 13:39:06;;;;;;;;;;;;;;;21.30;29.65;94806.19;10521755;28;1762;-73
2024/01/14 13:44:06;;;;;;;;;;;;;;;21.29;29.77;94797.50;10516745;28;2181;-68
2024/01/14 13:49:06;;;;;;;;;;;;;;;21.29;29.96;94797.50;10518224;28;1650;-67
2024/01/14 13:54:07;;;;;;;;;;;;;;;21.27;28.70;94786.50;10516525;28;1898;-65
2024/01/14 13:59:08;;;;;;;;;;;;;;;21.28;29.19;94785.44;10519396;28;2761;-65
2024/01/14 14:04:08;;;;;;;;;;;;;;;21.31;28.78;94786.69;10519644;27;1757;-66
2024/01/14 14:09:08;;;;;;;;;;;;;;;21.34;29.23;94783.44;10521543;28;1536;-66
2024/01/14 14:14:09;;;;;;;;;;;;;;;21.36;29.28;94776.00;10517026;28;1953;-65
2024/01/14 14:19:10;;;;;;;;;;;;;;;21.36;30.28;94768.88;10518220;28;1523;-66
2024/01/14 14:24:10;;;;;;;;;;;;;;;21.38;29.90;94758.03;10516876;28;1454;-64
2024/01/14 14:29:10;;;;;;;;;;;;;;;21.38;29.68;94755.38;10496729;28;1608;-63
2024/01/14 14:34:11;;;;;;;;;;;;;;;21.38;29.26;94748.25;10491394;28;1963;-62
2024/01/14 14:39:11;;;;;;;;;;;;;;;21.39;30.39;94744.53;10489100;28;2713;-63
2024/01/14 14:44:11;;;;;;;;;;;;;;;21.33;29.52;94726.53;10517443;28;1597;-62
2024/01/14 14:49:12;;;;;;;;;;;;;;;21.31;29.39;94715.50;10516252;28;1489;-64
2024/01/14 14:54:12;;;;;;;;;;;;;;;21.30;29.79;94724.50;10488766;28;1902;-65
2024/01/14 14:59:12;;;;;;;;;;;;;;;21.26;29.83;94716.41;10488630;28;1513;-65
2024/01/14 15:04:13;;;;;;;;;;;;;;;21.19;30.16;94713.41;10486532;28;1753;-64
2024/01/14 15:09:16;;;;;;;;;;;;;;;21.16;29.95;94702.72;10488649;28;1735;-64
2024/01/14 15:14:16;;;;;;;;;;;;;;;21.12;29.34;94696.50;10488020;28;1922;-65
2024/01/14 15:19:17;;;;;;;;;;;;;;;21.06;29.63;94693.97;10488582;28;1451;-64
2024/01/14 15:24:17;;;;;;;;;;;;;;;21.00;29.46;94676.69;10520246;28;2572;-65
2024/01/14 15:29:17;;;;;;;;;;;;;;;20.99;29.28;94669.09;10483734;28;1778;-64
2024/01/14 15:34:17;;;;;;;;;;;;;;;20.96;29.59;94659.16;10487870;28;1906;-66
2024/01/14 15:39:18;;;;;;;;;;;;;;;20.92;29.70;94650.31;10487400;28;1768;-66
2024/01/14 15:44:18;;;;;;;;;;;;;;;20.90;29.59;94647.97;10486829;28;1708;-65
2024/01/14 15:49:19;;;;;;;;;;;;;;;20.88;29.29;94636.97;10467793;28;2912;-66
2024/01/14 15:54:19;;;;;;;;;;;;;;;20.87;29.32;94634.63;10470334;28;2968;-65
2024/01/14 15:59:19;;;;;;;;;;;;;;;20.89;30.09;94635.13;10465899;28;2920;-68
2024/01/14 16:04:19;;;;;;;;;;;;;;;20.86;29.21;94636.50;10464423;28;3167;-68
2024/01/14 16:09:20;;;;;;;;;;;;;;;20.82;28.90;94626.84;10460610;28;2961;-67
2024/01/14 16:14:20;;;;;;;;;;;;;;;20.79;29.25;94617.69;10462777;28;2914;-69
2024/01/14 16:19:20;;;;;;;;;;;;;;;20.78;29.69;94613.53;10465274;28;2935;-66
2024/01/14 16:24:21;;;;;;;;;;;;;;;20.75;29.35;94602.81;10461441;28;3719;-64
2024/01/14 16:29:21;;;;;;;;;;;;;;;20.72;29.13;94600.78;10457674;28;3372;-67
2024/01/14 16:34:22;;;;;;;;;;;;;;;20.69;29.42;94593.50;10467021;28;3045;-68
2024/01/14 16:39:23;;;;;;;;;;;;;;;20.64;29.52;94591.75;10465356;28;3057;-68
2024/01/14 16:44:23;;;;;;;;;;;;;;;20.63;29.33;94584.91;10466547;28;3060;-68
2024/01/14 16:49:23;;;;;;;;;;;;;;;20.72;33.74;94588.41;10497618;28;3011;-60
2024/01/14 16:54:23;;;;;;;;;;;;;;;20.74;30.19;94578.34;10465212;28;2946;-67
2024/01/14 16:59:24;;;;;;;;;;;;;;;20.85;30.15;94579.63;10471191;28;2977;-68
2024/01/14 17:04:24;;;;;;;;;;;;;;;20.93;29.48;94573.63;10465843;28;3032;-70
2024/01/14 17:09:24;;;;;;;;;;;;;;;20.93;29.53;94563.09;10451660;28;2977;-72
2024/01/14 17:14:24;;;;;;;;;;;;;;;20.99;29.35;94561.09;10477662;28;2275;-68
2024/01/14 17:19:25;;;;;;;;;;;;;;;21.02;29.42;94561.28;10483328;28;1636;-69
2024/01/14 17:24:25;;;;;;;;;;;;;;;21.05;29.11;94550.16;10512662;28;1573;-67
2024/01/14 17:29:25;;;;;;;;;;;;;;;21.13;29.06;94550.47;10482055;28;2143;-69
2024/01/14 17:34:25;;;;;;;;;;;;;;;21.14;29.35;94547.56;10480069;28;1902;-69
2024/01/14 17:39:26;;;;;;;;;;;;;;;21.17;28.95;94540.88;10482044;28;2631;-69
2024/01/14 17:44:26;;;;;;;;;;;;;;;21.15;29.25;94543.03;10476311;28;2641;-68
2024/01/14 17:49:26;;;;;;;;;;;;;;;21.24;29.07;94541.22;10465463;28;1477;-69
2024/01/14 17:54:27;;;;;;;;;;;;;;;21.19;29.07;94536.06;10483944;28;1969;-68
2024/01/14 17:59:27;;;;;;;;;;;;;;;21.22;28.72;94524.94;10465370;28;1566;-68
2024/01/14 18:04:28;;;;;;;;;;;;;;;21.25;28.91;94524.28;10488629;28;1428;-68
2024/01/14 18:09:28;;;;;;;;;;;;;;;21.28;28.56;94523.69;10491917;28;1470;-68
2024/01/14 18:14:28;;;;;;;;;;;;;;;21.24;29.12;94518.28;10492401;28;1983;-69
2024/01/14 18:19:30;;;;;;;;;;;;;;;21.30;28.39;94511.00;10489290;28;1757;-67
2024/01/14 18:24:31;;;;;;;;;;;;;;;21.26;28.54;94499.50;10490235;28;2681;-68
2024/01/14 18:29:31;;;;;;;;;;;;;;;21.31;27.97;94499.38;10487665;28;1483;-68
2024/01/14 18:34:34;;;;;;;;;;;;;;;21.29;28.42;94493.63;10497763;28;1906;-68
2024/01/14 18:39:34;;;;;;;;;;;;;;;21.27;28.30;94483.38;10486748;28;2651;-69
2024/01/14 18:44:34;;;;;;;;;;;;;;;21.31;27.83;94473.03;10486189;28;1528;-68
2024/01/14 18:49:35;;;;;;;;;;;;;;;21.31;28.45;94465.13;10489892;28;1498;-69
2024/01/14 18:54:35;;;;;;;;;;;;;;;21.36;28.04;94471.00;10491537;28;1902;-66
2024/01/14 18:59:35;;;;;;;;;;;;;;;21.32;28.05;94464.00;10469223;28;1522;-70
2024/01/14 19:04:36;;;;;;;;;;;;;;;21.33;27.72;94471.59;10514884;28;1419;-67
2024/01/14 19:09:36;;;;;;;;;;;;;;;21.33;28.45;94449.75;10488330;28;2526;-68
2024/01/14 19:14:37;;;;;;;;;;;;;;;21.34;27.97;94451.31;10483579;28;1906;-69
2024/01/14 19:19:37;;;;;;;;;;;;;;;21.31;28.11;94446.66;10466871;28;1587;-67
2024/01/14 19:24:42;;;;;;;;;;;;;;;21.32;28.12;94448.97;10483580;28;1566;-68
2024/01/14 19:29:42;;;;;;;;;;;;;;;21.33;27.97;94441.84;10517735;28;1463;-70
2024/01/14 19:34:42;;;;;;;;;;;;;;;21.33;27.76;94428.69;10488896;28;1984;-69
2024/01/14 19:39:46;;;;;;;;;;;;;;;21.32;28.07;94429.75;10483950;28;2391;-69
2024/01/14 19:44:46;;;;;;;;;;;;;;;21.22;26.74;94420.28;10484801;28;1530;-69
2024/01/14 19:49:47;;;;;;;;;;;;;;;21.14;26.22;94423.69;10485964;28;2489;-68
2024/01/14 19:54:47;;;;;;;;;;;;;;;21.11;25.60;94426.94;10485708;28;2233;-67
2024/01/14 19:59:47;;;;;;;;;;;;;;;21.05;25.65;94423.69;10477756;28;2965;-69
2024/01/14 20:04:48;;;;;;;;;;;;;;;21.06;26.61;94413.94;10476427;28;2899;-68
2024/01/14 20:09:50;;;;;;;;;;;;;;;21.08;26.58;94412.50;10466173;28;3028;-70
2024/01/14 20:14:50;;;;;;;;;;;;;;;21.01;27.90;94400.88;10464438;28;2945;-66
2024/01/14 20:19:53;;;;;;;;;;;;;;;20.97;27.47;94395.44;10469544;28;3060;-66
2024/01/14 20:24:53;;;;;;;;;;;;;;;20.91;27.63;94391.41;10470234;28;2957;-68
2024/01/14 20:29:54;;;;;;;;;;;;;;;20.92;27.74;94386.88;10472366;28;3036;-66
2024/01/14 20:34:54;;;;;;;;;;;;;;;20.84;27.46;94379.75;10469836;28;2824;-66
2024/01/14 20:39:54;;;;;;;;;;;;;;;20.79;27.41;94369.38;10470220;28;3015;-66
2024/01/14 20:44:56;;;;;;;;;;;;;;;20.72;27.87;94361.94;10467708;28;3036;-66
2024/01/14 20:49:56;;;;;;;;;;;;;;;20.66;27.90;94363.16;10471561;28;2954;-65
2024/01/14 20:54:56;;;;;;;;;;;;;;;20.62;27.47;94350.91;10470876;28;2904;-61
2024/01/14 20:59:56;;;;;;;;;;;;;;;20.58;27.60;94361.28;10466236;28;2919;-61
2024/01/14 21:04:57;;;;;;;;;;;;;;;20.60;27.36;94358.34;10470984;28;2994;-63
2024/01/14 21:09:57;;;;;;;;;;;;;;;20.56;26.79;94352.91;10467582;28;2875;-62
2024/01/14 21:15:01;;;;;;;;;;;;;;;20.52;26.87;94351.97;10467577;28;2807;-62
2024/01/14 21:20:02;;;;;;;;;;;;;;;20.47;27.25;94346.84;10464287;28;3301;-61
2024/01/14 21:25:03;;;;;;;;;;;;;;;20.43;26.90;94332.75;10464205;28;2975;-62
2024/01/14 21:30:03;;;;;;;;;;;;;;;20.42;27.06;94330.44;10467258;28;2799;-66
2024/01/14 21:35:04;;;;;;;;;;;;;;;20.47;26.48;94317.88;10454249;28;2907;-66
2024/01/14 21:40:04;;;;;;;;;;;;;;;20.33;27.15;94322.50;10475390;28;2995;-62
2024/01/14 21:45:06;;;;;;;;;;;;;;;20.32;27.40;94328.84;10478821;28;3009;-61
2024/01/14 21:50:07;;;;;;;;;;;;;;;20.33;27.27;94322.50;10473410;28;2844;-63
2024/01/14 21:55:07;;;;;;;;;;;;;;;20.32;27.10;94326.19;10490948;28;2871;-64
2024/01/14 22:00:09;;;;;;;;;;;;;;;20.30;27.80;94324.97;10471321;28;3086;-67
2024/01/14 22:05:09;;;;;;;;;;;;;;;20.32;27.79;94320.94;10475378;28;2874;-68
2024/01/14 22:10:09;;;;;;;;;;;;;;;20.32;27.71;94315.69;10471194;28;3011;-67
2024/01/14 22:15:09;;;;;;;;;;;;;;;20.29;27.68;94313.66;10474449;28;3001;-66
2024/01/14 22:20:16;;;;;;;;;;;;;;;20.26;27.85;94314.28;10476460;28;3049;-68
2024/01/14 22:25:16;;;;;;;;;;;;;;;20.24;27.63;94311.16;10473313;28;2913;-67
2024/01/14 22:30:16;;;;;;;;;;;;;;;20.20;27.68;94297.84;10475458;28;2921;-67
2024/01/14 22:35:17;;;;;;;;;;;;;;;20.19;27.51;94296.31;10475336;28;2897;-67
2024/01/14 22:40:17;;;;;;;;;;;;;;;20.17;27.65;94300.31;10472709;28;3018;-66
2024/01/14 22:45:18;;;;;;;;;;;;;;;20.15;27.29;94295.31;10473894;28;2828;-67
2024/01/14 22:50:18;;;;;;;;;;;;;;;20.13;27.43;94284.31;10481163;28;2965;-69
2024/01/14 22:55:18;;;;;;;;;;;;;;;20.12;27.14;94297.78;10477260;28;2874;-68
2024/01/14 23:00:24;;;;;;;;;;;;;;;20.10;27.31;94287.59;10476229;28;3048;-66
2024/01/14 23:05:25;;;;;;;;;;;;;;;20.11;27.39;94291.00;10476218;28;2937;-68
2024/01/14 23:10:25;;;;;;;;;;;;;;;20.09;28.03;94293.91;10477102;28;2819;-68
2024/01/14 23:15:26;;;;;;;;;;;;;;;20.09;27.46;94291.28;10476411;28;2919;-67
2024/01/14 23:20:26;;;;;;;;;;;;;;;20.08;27.33;94286.34;10473638;28;2993;-66
2024/01/14 23:25:26;;;;;;;;;;;;;;;20.07;26.92;94298.69;10502611;27;2949;-66
2024/01/14 23:30:26;;;;;;;;;;;;;;;20.08;27.06;94284.50;10471184;28;2925;-69
2024/01/14 23:35:27;;;;;;;;;;;;;;;20.05;27.25;94289.59;10478308;28;3064;-68
2024/01/14 23:40:27;;;;;;;;;;;;;;;20.05;26.90;94281.69;10472957;28;2949;-69
2024/01/14 23:45:27;;;;;;;;;;;;;;;20.00;26.84;94285.25;10476393;28;2989;-68
2024/01/14 23:50:27;;;;;;;;;;;;;;;19.98;26.91;94284.75;10475175;28;3023;-68
2024/01/14 23:55:28;;;;;;;;;;;;;;;19.96;26.87;94288.78;10473447;28;2994;-68
